Time;durP1;ratioP1;P1;durP2;ratioP2;P2;SDS_P1;SDS_P2;PMS_P1;PMS_P2;Temp;Humidity;BMP_temperature;BMP_pressure;BME280_temperature;BME280_humidity;BME280_pressure;Samples;Min_cycle;Max_cycle;Signal;HPM_P1;HPM_P2
2023/06/10 00:00:45;;;;;;;;;11.00;11.00;;;;;25.72;41.54;100448.59;4969720;28;45899;-53
2023/06/10 00:03:10;;;;;;;;;11.25;10.50;;;;;25.72;41.50;100445.09;4961965;28;45446;-52
2023/06/10 00:05:38;;;;;;;;;14.00;11.25;;;;;25.71;41.51;100444.25;4961235;28;45216;-52
2023/06/10 00:08:07;;;;;;;;;16.00;13.25;;;;;25.72;41.26;100447.75;4960274;28;45605;-48
2023/06/10 00:10:35;;;;;;;;;13.00;11.75;;;;;25.71;41.28;100446.91;4962455;28;47409;-51
2023/06/10 00:13:00;;;;;;;;;12.50;12.50;;;;;25.72;41.73;100445.09;4943508;28;45844;-54
2023/06/10 00:15:27;;;;;;;;;10.75;10.75;;;;;25.72;41.65;100442.44;4961726;28;45224;-52
2023/06/10 00:17:52;;;;;;;;;12.33;11.00;;;;;25.72;41.58;100445.94;4952083;28;51255;-55
2023/06/10 00:20:18;;;;;;;;;13.00;11.75;;;;;25.71;41.53;100452.22;4966872;28;46252;-54
2023/06/10 00:22:46;;;;;;;;;12.00;10.50;;;;;25.72;42.16;100450.41;4972730;28;44733;-53
2023/06/10 00:25:11;;;;;;;;;12.00;10.00;;;;;25.72;42.11;100450.41;4971038;28;45439;-54
2023/06/10 00:27:37;;;;;;;;;14.00;12.50;;;;;25.72;41.72;100458.38;4974235;28;45353;-56
2023/06/10 00:30:04;;;;;;;;;11.25;10.50;;;;;25.72;41.84;100461.03;4963940;28;56234;-56
2023/06/10 00:32:30;;;;;;;;;11.75;10.25;;;;;25.72;42.28;100456.53;4962350;28;45887;-54
2023/06/10 00:34:56;;;;;;;;;10.75;10.50;;;;;25.72;42.01;100453.06;4963602;28;45207;-56
2023/06/10 00:37:22;;;;;;;;;11.50;8.50;;;;;25.72;42.11;100463.69;4961057;28;45215;-53
2023/06/10 00:39:47;;;;;;;;;15.25;11.25;;;;;25.71;42.16;100456.69;4960567;28;47031;-56
2023/06/10 00:42:12;;;;;;;;;10.75;10.00;;;;;25.71;41.70;100467.31;4961035;28;59047;-57
2023/06/10 00:44:38;;;;;;;;;11.25;9.75;;;;;25.70;42.02;100468.28;4962212;28;45271;-52
2023/06/10 00:47:03;;;;;;;;;10.00;9.50;;;;;25.71;42.17;100467.31;4960217;28;50533;-51
2023/06/10 00:49:29;;;;;;;;;9.50;9.50;;;;;25.71;42.21;100469.97;4960747;28;45769;-54
2023/06/10 00:51:54;;;;;;;;;10.75;10.75;;;;;25.71;42.42;100467.31;4962521;28;45219;-56
2023/06/10 00:54:20;;;;;;;;;11.25;8.75;;;;;25.72;42.47;100469.00;4966345;28;45443;-56
2023/06/10 00:56:47;;;;;;;;;9.00;9.00;;;;;25.72;42.35;100471.66;4947283;28;45523;-56
2023/06/10 00:59:14;;;;;;;;;8.75;8.50;;;;;25.71;42.27;100468.13;4960180;28;45766;-56
2023/06/10 01:01:43;;;;;;;;;12.00;12.00;;;;;25.71;42.80;100467.31;4962515;28;45501;-56
2023/06/10 01:04:11;;;;;;;;;9.75;9.75;;;;;25.70;42.75;100476.22;4960349;28;45303;-57
2023/06/10 01:06:47;;;;;;;;;8.75;7.25;;;;;25.70;43.19;100473.56;4960267;28;45553;-55
2023/06/10 01:09:33;;;;;;;;;11.50;9.00;;;;;25.69;43.23;100474.53;4962517;28;46265;-56
2023/06/10 01:12:03;;;;;;;;;8.50;8.00;;;;;25.68;42.91;100467.56;4960036;28;45311;-56
2023/06/10 01:14:31;;;;;;;;;11.75;9.25;;;;;25.67;42.97;100466.72;4959789;28;45391;-54
2023/06/10 01:16:58;;;;;;;;;12.50;10.75;;;;;25.65;42.96;100465.16;4963156;28;45538;-56
2023/06/10 01:19:24;;;;;;;;;12.00;11.75;;;;;25.65;42.73;100473.09;4962871;28;46429;-56
2023/06/10 01:21:50;;;;;;;;;8.25;8.25;;;;;25.63;42.84;100478.56;4960634;28;45441;-53
2023/06/10 01:24:18;;;;;;;;;8.25;8.25;;;;;25.62;43.09;100469.75;4967059;28;45339;-46
2023/06/10 01:26:48;;;;;;;;;10.25;8.75;;;;;25.60;43.38;100469.03;4970230;28;45254;-57
2023/06/10 01:29:23;;;;;;;;;7.00;7.00;;;;;25.59;43.46;100464.69;4967588;28;45975;-58
2023/06/10 01:31:50;;;;;;;;;10.50;9.50;;;;;25.58;43.17;100467.47;4966163;28;45745;-49
2023/06/10 01:34:18;;;;;;;;;10.75;9.00;;;;;25.57;43.61;100463.16;4976404;28;44818;-58
2023/06/10 01:36:49;;;;;;;;;10.50;9.00;;;;;25.55;43.43;100468.56;4966004;28;45240;-58
2023/06/10 01:39:20;;;;;;;;;10.50;8.75;;;;;25.54;43.79;100472.19;4968223;28;46035;-56
2023/06/10 01:41:47;;;;;;;;;9.25;9.25;;;;;25.52;43.92;100471.47;4956738;28;45363;-58
2023/06/10 01:44:20;;;;;;;;;11.50;9.00;;;;;25.52;43.87;100481.25;4978216;28;44771;-57
2023/06/10 01:46:45;;;;;;;;;8.75;7.25;;;;;25.52;43.63;100486.56;4984786;28;44948;-57
2023/06/10 01:49:10;;;;;;;;;10.00;8.00;;;;;25.50;44.03;100489.34;4970854;28;45216;-56
2023/06/10 01:51:36;;;;;;;;;7.75;7.75;;;;;25.49;43.40;100487.66;4965630;28;58349;-57
2023/06/10 01:54:01;;;;;;;;;9.00;9.00;;;;;25.49;43.76;100486.81;4963604;28;45389;-57
2023/06/10 01:56:26;;;;;;;;;8.50;6.75;;;;;25.46;43.74;100490.56;4941859;28;45612;-57
2023/06/10 01:58:54;;;;;;;;;8.25;7.25;;;;;25.45;43.98;100494.19;4959402;28;45448;-50
2023/06/10 02:01:20;;;;;;;;;8.50;8.50;;;;;25.43;43.80;100491.66;4959876;28;45736;-53
2023/06/10 02:03:45;;;;;;;;;6.75;6.75;;;;;25.42;43.57;100483.81;4959528;28;45832;-56
2023/06/10 02:06:10;;;;;;;;;7.00;7.00;;;;;25.42;44.06;100491.75;4959598;28;53472;-56
2023/06/10 02:08:36;;;;;;;;;10.75;10.00;;;;;25.40;43.95;100488.38;4963116;28;48545;-54
2023/06/10 02:11:01;;;;;;;;;7.25;7.25;;;;;25.39;44.29;100494.66;4967904;28;45770;-57
2023/06/10 02:13:26;;;;;;;;;10.50;7.25;;;;;25.38;43.82;100487.66;4978621;28;44810;-56
2023/06/10 02:15:53;;;;;;;;;11.25;9.25;;;;;25.37;44.48;100484.16;4963934;28;45722;-50
2023/06/10 02:18:20;;;;;;;;;10.00;7.00;;;;;25.36;43.80;100489.59;4969688;28;46345;-52
2023/06/10 02:20:46;;;;;;;;;8.50;7.25;;;;;25.35;44.13;100493.22;4973809;28;45043;-56
2023/06/10 02:23:11;;;;;;;;;6.00;6.00;;;;;25.34;44.26;100486.22;4969436;28;45445;-56
2023/06/10 02:25:36;;;;;;;;;11.75;9.50;;;;;25.32;43.91;100495.13;4962366;28;45423;-56
2023/06/10 02:28:03;;;;;;;;;9.25;7.50;;;;;25.30;44.58;100481.16;4958986;28;54153;-56
2023/06/10 02:30:28;;;;;;;;;9.00;9.00;;;;;25.30;44.38;100486.47;4941317;28;45283;-57
2023/06/10 02:32:56;;;;;;;;;7.50;7.50;;;;;25.29;44.18;100482.16;4961661;28;45339;-56
2023/06/10 02:35:22;;;;;;;;;8.00;7.25;;;;;25.29;44.50;100490.09;4962191;28;45236;-56
2023/06/10 02:37:47;;;;;;;;;8.50;7.75;;;;;25.29;44.34;100489.25;4960288;28;46260;-57
2023/06/10 02:40:13;;;;;;;;;8.50;5.75;;;;;25.28;44.11;100483.13;4959920;28;45449;-57
2023/06/10 02:42:38;;;;;;;;;7.00;7.00;;;;;25.27;44.52;100492.03;4960122;28;45545;-56
2023/06/10 02:45:04;;;;;;;;;8.75;8.00;;;;;25.29;44.47;100489.25;4961154;28;45340;-56
2023/06/10 02:47:29;;;;;;;;;9.25;7.00;;;;;25.29;44.14;100489.25;4962089;28;45418;-57
2023/06/10 02:49:55;;;;;;;;;6.00;6.00;;;;;25.29;44.84;100500.72;4959189;28;45374;-55
2023/06/10 02:52:20;;;;;;;;;9.50;8.00;;;;;25.28;44.56;100495.50;4961242;28;45365;-48
2023/06/10 02:54:46;;;;;;;;;10.00;8.00;;;;;25.27;44.80;100493.84;4960083;28;45537;-55
2023/06/10 02:57:11;;;;;;;;;7.00;6.50;;;;;25.24;44.47;100500.22;4963803;28;46070;-54
2023/06/10 02:59:36;;;;;;;;;7.50;6.75;;;;;25.25;44.22;100501.91;4965552;28;45431;-56
2023/06/10 03:02:02;;;;;;;;;5.25;5.25;;;;;25.22;44.41;100499.50;4963491;28;45401;-56
2023/06/10 03:04:28;;;;;;;;;7.00;5.25;;;;;25.23;44.87;100501.19;4961522;28;45349;-51
2023/06/10 03:06:54;;;;;;;;;6.50;6.50;;;;;25.22;44.60;100496.84;4961022;28;45764;-50
2023/06/10 03:09:20;;;;;;;;;6.25;6.25;;;;;25.21;44.52;100497.81;4963256;28;45337;-56
2023/06/10 03:11:45;;;;;;;;;9.25;6.50;;;;;25.22;44.87;100515.44;4963629;28;45398;-56
2023/06/10 03:14:10;;;;;;;;;9.00;7.75;;;;;25.21;44.71;100503.13;4966211;28;45497;-57
2023/06/10 03:16:40;;;;;;;;;8.00;6.50;;;;;25.22;44.49;100509.28;4967273;28;47461;-57
2023/06/10 03:19:06;;;;;;;;;7.50;6.00;;;;;25.21;44.81;100502.28;4969307;28;45422;-56
2023/06/10 03:21:31;;;;;;;;;7.25;7.00;;;;;25.18;45.01;100508.69;4972973;28;45426;-57
2023/06/10 03:23:56;;;;;;;;;8.00;6.50;;;;;25.16;45.08;100507.97;4976539;28;45469;-49
2023/06/10 03:26:22;;;;;;;;;9.00;7.25;;;;;25.16;45.17;100513.28;4983019;28;45381;-57
2023/06/10 03:28:48;;;;;;;;;7.50;7.00;;;;;25.15;44.61;100512.41;4984012;28;45439;-57
2023/06/10 03:31:13;;;;;;;;;6.75;6.75;;;;;25.14;45.00;100501.94;4984581;28;44745;-56
2023/06/10 03:33:38;;;;;;;;;10.00;7.25;;;;;25.15;44.86;100503.63;4980629;28;49743;-55
2023/06/10 03:36:04;;;;;;;;;6.25;5.25;;;;;25.16;45.16;100497.38;4983009;28;45158;-56
2023/06/10 03:38:30;;;;;;;;;7.75;7.00;;;;;25.16;44.50;100505.31;4969987;28;45168;-52
2023/06/10 03:40:55;;;;;;;;;7.25;7.25;;;;;25.17;44.82;100507.84;4969770;28;45395;-55
2023/06/10 03:43:21;;;;;;;;;6.25;6.25;;;;;25.17;44.77;100507.84;4965475;28;45644;-55
2023/06/10 03:45:48;;;;;;;;;6.50;6.00;;;;;25.19;45.04;100509.53;4963189;28;46104;-54
2023/06/10 03:48:13;;;;;;;;;7.00;6.00;;;;;25.18;44.64;100514.00;4962749;28;45282;-53
2023/06/10 03:50:38;;;;;;;;;7.25;7.00;;;;;25.17;44.88;100518.44;4963832;28;45422;-47
2023/06/10 03:53:04;;;;;;;;;9.00;6.50;;;;;25.15;45.02;100515.06;4964524;28;45273;-46
2023/06/10 03:55:29;;;;;;;;;9.00;7.25;;;;;25.15;45.02;100511.59;4979973;28;46735;-55
2023/06/10 03:57:55;;;;;;;;;6.50;6.50;;;;;25.12;44.76;100515.34;4973175;28;45339;-57
2023/06/10 04:00:21;;;;;;;;;7.25;5.75;;;;;25.09;44.41;100520.03;4961879;28;45240;-56
2023/06/10 04:02:49;;;;;;;;;7.25;6.25;;;;;25.07;44.82;100527.28;4963863;28;45503;-56
2023/06/10 04:05:16;;;;;;;;;6.75;6.50;;;;;25.04;44.77;100516.91;4961655;28;46278;-56
2023/06/10 04:07:42;;;;;;;;;6.00;5.25;;;;;25.03;44.63;100525.81;4961365;28;45776;-57
2023/06/10 04:10:08;;;;;;;;;7.25;6.25;;;;;25.00;44.85;100527.75;4951865;28;45260;-58
2023/06/10 04:12:34;;;;;;;;;9.75;6.50;;;;;24.97;44.89;100530.63;4962850;28;45260;-57
2023/06/10 04:15:00;;;;;;;;;6.50;5.00;;;;;24.96;45.00;100523.69;4963065;28;46098;-57
2023/06/10 04:17:25;;;;;;;;;7.50;7.50;;;;;24.95;44.64;100529.94;4961316;28;45825;-56
2023/06/10 04:19:51;;;;;;;;;7.25;5.50;;;;;24.93;44.92;100531.00;4963382;28;45588;-56
2023/06/10 04:22:17;;;;;;;;;4.75;4.75;;;;;24.93;44.91;100531.00;4961355;28;45346;-56
2023/06/10 04:24:43;;;;;;;;;5.00;5.00;;;;;24.90;45.37;100532.09;4961001;28;46924;-58
2023/06/10 04:27:08;;;;;;;;;6.00;6.00;;;;;24.89;45.42;100532.22;4961527;28;45310;-53
2023/06/10 04:29:34;;;;;;;;;6.75;6.25;;;;;24.88;45.11;100534.03;4961600;28;45487;-57
2023/06/10 04:32:01;;;;;;;;;9.00;5.00;;;;;24.87;45.25;100540.28;4960339;28;45334;-57
2023/06/10 04:34:26;;;;;;;;;9.00;7.00;;;;;24.86;44.86;100533.28;4960416;28;46176;-53
2023/06/10 04:36:52;;;;;;;;;6.25;5.75;;;;;24.85;45.60;100535.13;4960516;28;45452;-57
2023/06/10 04:39:17;;;;;;;;;8.00;6.25;;;;;24.86;45.21;100541.25;4962707;28;45251;-57
2023/06/10 04:41:42;;;;;;;;;7.50;7.50;;;;;24.88;44.92;100546.44;4961241;28;48900;-56
2023/06/10 04:44:08;;;;;;;;;4.00;4.00;;;;;24.86;44.93;100546.53;4959545;28;46986;-57
2023/06/10 04:46:33;;;;;;;;;8.25;6.50;;;;;24.88;45.22;100549.09;4962030;28;45332;-56
2023/06/10 04:48:58;;;;;;;;;8.75;6.00;;;;;24.87;45.01;100550.88;4959811;28;45300;-54
2023/06/10 04:51:27;;;;;;;;;6.25;6.25;;;;;24.85;44.88;100553.66;4960743;28;45627;-54
2023/06/10 04:53:53;;;;;;;;;5.50;5.25;;;;;24.85;45.56;100555.50;4944522;28;47757;-56
2023/06/10 04:56:18;;;;;;;;;7.00;7.00;;;;;24.82;44.98;100555.72;4959861;28;45764;-54
2023/06/10 04:58:44;;;;;;;;;5.75;5.75;;;;;24.81;45.29;100559.34;4960459;28;45774;-53
2023/06/10 05:01:09;;;;;;;;;6.25;6.25;;;;;24.77;45.47;100558.72;4965489;28;45465;-56
2023/06/10 05:03:35;;;;;;;;;6.00;6.00;;;;;24.74;45.30;100558.13;4968224;28;46476;-55
2023/06/10 05:06:00;;;;;;;;;5.25;5.25;;;;;24.68;45.27;100565.59;4968450;28;54217;-49
2023/06/10 05:08:25;;;;;;;;;7.50;6.00;;;;;24.66;45.96;100561.34;4970559;28;46804;-53
2023/06/10 05:10:50;;;;;;;;;7.50;6.75;;;;;24.63;45.33;100559.78;4961339;28;45604;-54
2023/06/10 05:13:17;;;;;;;;;5.75;5.00;;;;;24.59;45.83;100560.09;4959649;28;56208;-55
2023/06/10 05:15:44;;;;;;;;;7.00;6.00;;;;;24.56;46.06;100561.19;4959918;28;45294;-54
2023/06/10 05:18:10;;;;;;;;;6.00;6.00;;;;;24.53;45.60;100558.78;4959749;28;45323;-53
2023/06/10 05:20:35;;;;;;;;;3.25;3.00;;;;;24.52;45.52;100562.41;4965151;28;45277;-56
2023/06/10 05:23:01;;;;;;;;;6.00;5.25;;;;;24.51;46.19;100560.72;4963329;28;54217;-54
2023/06/10 05:25:29;;;;;;;;;7.25;7.25;;;;;24.49;46.35;100568.78;4960720;28;45275;-56
2023/06/10 05:27:55;;;;;;;;;6.00;5.00;;;;;24.48;46.40;100566.25;4962544;28;45438;-56
2023/06/10 05:30:21;;;;;;;;;7.75;7.75;;;;;24.48;45.93;100574.19;4968826;28;45303;-55
2023/06/10 05:32:46;;;;;;;;;8.00;5.75;;;;;24.46;45.87;100576.13;4975233;28;46234;-52
2023/06/10 05:35:11;;;;;;;;;6.00;6.00;;;;;24.45;46.45;100574.44;4945066;28;52858;-48
2023/06/10 05:37:37;;;;;;;;;7.25;7.25;;;;;24.44;46.59;100573.59;4970432;28;45364;-53
2023/06/10 05:40:04;;;;;;;;;7.00;7.00;;;;;24.43;46.08;100576.34;4962501;28;45314;-55
2023/06/10 05:42:29;;;;;;;;;6.50;6.50;;;;;24.42;46.33;100569.38;4959430;28;46064;-55
2023/06/10 05:44:55;;;;;;;;;7.00;6.00;;;;;24.41;46.04;100568.53;4958382;28;45433;-56
2023/06/10 05:47:20;;;;;;;;;6.25;6.25;;;;;24.42;45.94;100569.38;4958756;28;45498;-55
2023/06/10 05:49:48;;;;;;;;;9.00;7.25;;;;;24.42;46.13;100574.69;4941335;28;45581;-54
2023/06/10 05:52:13;;;;;;;;;6.75;6.75;;;;;24.41;46.00;100575.63;4957024;28;46250;-54
2023/06/10 05:54:39;;;;;;;;;10.25;7.75;;;;;24.41;46.52;100583.59;4959033;28;45509;-55
2023/06/10 05:57:05;;;;;;;;;6.00;6.00;;;;;24.41;46.49;100583.59;4964874;28;45334;-56
2023/06/10 05:59:30;;;;;;;;;8.00;7.00;;;;;24.41;46.14;100586.22;4965994;28;45267;-53
2023/06/10 06:01:56;;;;;;;;;11.00;7.75;;;;;24.41;46.14;100586.22;4961270;28;46052;-55
2023/06/10 06:04:21;;;;;;;;;7.00;7.00;;;;;24.41;46.51;100583.59;4960309;28;45437;-55
2023/06/10 06:06:46;;;;;;;;;8.00;7.00;;;;;24.38;46.18;100582.00;4958095;28;45406;-54
2023/06/10 06:09:12;;;;;;;;;8.25;6.25;;;;;24.38;46.39;100580.19;4956560;28;45719;-55
2023/06/10 06:11:38;;;;;;;;;8.00;5.75;;;;;24.39;46.78;100581.91;4956388;28;46422;-55
2023/06/10 06:14:03;;;;;;;;;8.50;6.25;;;;;24.39;46.28;100587.19;4960014;28;45369;-54
2023/06/10 06:16:28;;;;;;;;;7.75;7.00;;;;;24.39;46.53;100584.53;4940365;28;45316;-54
2023/06/10 06:18:54;;;;;;;;;8.75;7.25;;;;;24.41;46.64;100588.88;4941214;28;52868;-55
2023/06/10 06:21:19;;;;;;;;;7.25;7.25;;;;;24.41;47.01;100588.88;4961067;28;45910;-54
2023/06/10 06:23:44;;;;;;;;;7.33;6.33;;;;;24.42;46.44;100583.47;4959619;28;57872;-55
2023/06/10 06:26:10;;;;;;;;;8.25;6.25;;;;;24.44;46.91;100585.97;4961323;28;50745;-54
2023/06/10 06:28:35;;;;;;;;;10.00;7.00;;;;;24.47;46.90;100588.41;4963745;28;45302;-53
2023/06/10 06:31:00;;;;;;;;;11.75;6.00;;;;;24.47;46.43;100581.31;4962699;28;45505;-54
2023/06/10 06:33:26;;;;;;;;;8.25;7.25;;;;;24.50;46.92;100589.00;4961736;28;45828;-54
2023/06/10 06:35:51;;;;;;;;;5.50;5.50;;;;;24.54;46.65;100590.47;4962281;28;45321;-55
2023/06/10 06:38:17;;;;;;;;;8.00;5.00;;;;;24.58;46.61;100595.53;4962106;28;45480;-56
2023/06/10 06:40:42;;;;;;;;;7.50;6.75;;;;;24.59;46.38;100591.91;4964200;28;46264;-56
2023/06/10 06:43:07;;;;;;;;;10.50;8.50;;;;;24.62;46.36;100597.84;4943863;28;45396;-53
2023/06/10 06:45:33;;;;;;;;;6.00;6.00;;;;;24.63;46.60;100599.53;4964704;28;45342;-55
2023/06/10 06:47:59;;;;;;;;;6.25;6.25;;;;;24.64;46.89;100600.34;4946090;28;45425;-51
2023/06/10 06:50:24;;;;;;;;;8.00;8.00;;;;;24.65;46.41;100602.06;4963422;28;45857;-53
2023/06/10 06:52:50;;;;;;;;;9.00;7.75;;;;;24.65;46.48;100599.41;4961927;28;45392;-55
2023/06/10 06:55:15;;;;;;;;;7.75;7.75;;;;;24.68;46.59;100607.97;4949678;28;45327;-52
2023/06/10 06:57:40;;;;;;;;;10.00;6.25;;;;;24.71;46.89;100609.53;4965718;28;45353;-51
2023/06/10 07:00:07;;;;;;;;;6.75;6.75;;;;;24.74;46.48;100611.13;4962150;28;45654;-52
2023/06/10 07:02:33;;;;;;;;;6.50;6.00;;;;;24.76;46.70;100611.84;4961615;28;45745;-51
2023/06/10 07:04:58;;;;;;;;;10.25;6.75;;;;;24.78;47.11;100612.56;4963109;28;45276;-54
2023/06/10 07:07:24;;;;;;;;;9.25;7.25;;;;;24.80;46.84;100615.94;4944136;28;45685;-52
2023/06/10 07:09:49;;;;;;;;;7.50;7.50;;;;;24.80;47.19;100616.81;4962627;28;46039;-49
2023/06/10 07:12:15;;;;;;;;;7.00;7.00;;;;;24.82;47.21;100614.88;4961466;28;45205;-50
2023/06/10 07:14:40;;;;;;;;;9.00;7.25;;;;;24.82;47.12;100614.03;4962750;28;45301;-55
2023/06/10 07:17:05;;;;;;;;;8.25;7.00;;;;;24.83;46.79;100619.22;4966373;28;45225;-55
2023/06/10 07:19:34;;;;;;;;;8.75;5.00;;;;;24.84;46.95;100622.72;4963131;28;49102;-51
2023/06/10 07:21:59;;;;;;;;;6.75;6.75;;;;;24.85;47.32;100613.81;4962186;28;45355;-53
2023/06/10 07:24:24;;;;;;;;;8.25;8.00;;;;;24.87;46.82;100611.84;4964545;28;45305;-51
2023/06/10 07:26:50;;;;;;;;;6.50;5.25;;;;;24.89;47.30;100615.25;4945054;28;47495;-50
2023/06/10 07:29:15;;;;;;;;;8.00;8.00;;;;;24.90;47.40;100616.94;4970095;28;44940;-49
2023/06/10 07:31:41;;;;;;;;;11.00;8.25;;;;;24.91;47.35;100618.63;4980701;28;44812;-55
2023/06/10 07:34:07;;;;;;;;;6.00;6.00;;;;;24.94;47.18;100622.81;4980243;28;45473;-54
2023/06/10 07:36:35;;;;;;;;;5.75;5.25;;;;;24.94;47.51;100615.75;4975595;28;45196;-57
2023/06/10 07:39:00;;;;;;;;;7.00;7.00;;;;;24.96;47.76;100621.78;4967358;28;52096;-56
2023/06/10 07:41:25;;;;;;;;;8.25;8.00;;;;;24.98;47.11;100624.28;4961638;28;45328;-55
2023/06/10 07:43:54;;;;;;;;;6.00;6.00;;;;;25.00;47.87;100633.81;4963294;28;45781;-56
2023/06/10 07:46:21;;;;;;;;;7.75;5.00;;;;;25.03;47.79;100631.88;4962683;28;45512;-54
2023/06/10 07:48:47;;;;;;;;;8.00;6.50;;;;;25.05;47.27;100636.09;4962619;28;46853;-55
2023/06/10 07:51:12;;;;;;;;;11.00;8.75;;;;;25.08;48.05;100632.38;4971814;28;45136;-56
2023/06/10 07:53:37;;;;;;;;;9.25;6.25;;;;;25.10;48.07;100635.72;4965771;28;53340;-53
2023/06/10 07:56:03;;;;;;;;;9.75;7.00;;;;;25.11;47.66;100640.06;4961753;28;45589;-56
2023/06/10 07:58:28;;;;;;;;;8.75;8.00;;;;;25.13;47.87;100639.00;4960990;28;46309;-55
2023/06/10 08:00:54;;;;;;;;;6.75;6.75;;;;;25.16;48.33;100649.34;4953275;28;45411;-56
2023/06/10 08:03:19;;;;;;;;;2.00;2.00;;;;;25.17;48.00;100632.50;4963846;28;45323;-52
2023/06/10 08:05:44;;;;;;;;;9.75;7.25;;;;;25.20;48.01;100649.13;4961695;28;45232;-56
2023/06/10 08:08:10;;;;;;;;;8.67;7.33;;;;;25.21;47.56;100649.00;4961919;28;65980;-56
2023/06/10 08:10:35;;;;;;;;;6.25;5.50;;;;;25.22;48.00;100642.72;4961996;28;45254;-56
2023/06/10 08:13:00;;;;;;;;;8.75;7.50;;;;;25.23;47.63;100655.03;4959771;28;60315;-53
2023/06/10 08:15:25;;;;;;;;;7.50;6.75;;;;;25.24;47.74;100651.41;4944371;28;45245;-56
2023/06/10 08:17:51;;;;;;;;;7.50;6.50;;;;;25.27;47.65;100660.94;4965679;28;51187;-54
2023/06/10 08:20:18;;;;;;;;;6.25;6.00;;;;;25.28;47.32;100650.22;4964387;28;45783;-53
2023/06/10 08:22:43;;;;;;;;;6.25;5.75;;;;;25.30;47.44;100650.09;4961658;28;45315;-55
2023/06/10 08:25:08;;;;;;;;;9.50;8.00;;;;;25.31;47.66;100646.47;4962510;28;45509;-53
2023/06/10 08:27:34;;;;;;;;;6.00;5.25;;;;;25.34;47.18;100650.69;4965226;28;45303;-52
2023/06/10 08:30:00;;;;;;;;;8.25;7.25;;;;;25.35;47.40;100652.38;4959597;28;45390;-53
2023/06/10 08:32:25;;;;;;;;;7.00;6.00;;;;;25.39;47.32;100656.50;4960563;28;45346;-49
2023/06/10 09:04:20;;;;;;;;;7.25;6.25;;;;;25.57;46.94;100649.75;4958361;28;45844;-46
2023/06/10 09:06:48;;;;;;;;;6.50;5.75;;;;;25.60;46.84;100652.16;4967086;28;45329;-45
2023/06/10 09:09:15;;;;;;;;;6.75;5.00;;;;;25.61;46.95;100648.53;4961726;28;45377;-46
2023/06/10 09:11:42;;;;;;;;;5.50;5.00;;;;;25.63;47.24;100651.88;4943426;28;45456;-46
2023/06/10 09:14:07;;;;;;;;;5.00;5.00;;;;;25.63;47.01;100651.88;4960653;28;46111;-47
2023/06/10 09:16:34;;;;;;;;;5.00;5.00;;;;;25.63;46.60;100651.88;4977522;28;44782;-46
2023/06/10 09:19:00;;;;;;;;;6.00;5.25;;;;;25.65;46.37;100653.56;4976400;28;44812;-47
2023/06/10 09:21:26;;;;;;;;;5.50;4.75;;;;;25.67;46.85;100649.00;4959922;28;45492;-46
2023/06/10 09:23:51;;;;;;;;;6.25;4.75;;;;;25.69;46.52;100644.41;4958565;28;47234;-47
2023/06/10 09:26:18;;;;;;;;;5.00;3.25;;;;;25.71;46.87;100661.06;4958223;28;45365;-46
2023/06/10 09:28:47;;;;;;;;;5.75;5.00;;;;;25.72;46.34;100649.47;4959184;28;45470;-45
2023/06/10 09:31:13;;;;;;;;;5.25;5.25;;;;;25.72;46.70;100654.78;4964893;28;45523;-44
2023/06/10 09:33:39;;;;;;;;;5.25;4.25;;;;;25.76;46.54;100658.88;4964367;28;47100;-44
2023/06/10 09:36:05;;;;;;;;;5.25;4.25;;;;;25.78;46.61;100648.97;4964345;28;45293;-47
2023/06/10 09:38:32;;;;;;;;;4.50;3.75;;;;;25.80;46.40;100656.84;4961157;28;45188;-45
2023/06/10 09:40:58;;;;;;;;;3.75;3.75;;;;;25.80;46.66;100652.34;4941383;28;45599;-46
2023/06/10 09:43:42;;;;;;;;;5.50;4.75;;;;;25.82;46.32;100661.03;4958339;28;45429;-48
2023/06/10 09:46:17;;;;;;;;;4.00;4.00;;;;;25.82;45.95;100653.06;4958185;28;45782;-49
2023/06/10 09:48:44;;;;;;;;;8.00;4.00;;;;;25.85;46.24;100658.13;4958491;28;45408;-49
2023/06/10 09:51:11;;;;;;;;;5.50;4.50;;;;;25.88;46.27;100659.69;4958833;28;45321;-46
2023/06/10 09:53:37;;;;;;;;;5.50;4.00;;;;;25.88;46.15;100657.88;4958384;28;45265;-45
2023/06/10 09:56:02;;;;;;;;;4.50;4.50;;;;;25.88;45.99;100657.03;4958262;28;45374;-47
2023/06/10 09:58:38;;;;;;;;;4.00;4.00;;;;;25.88;45.78;100654.38;4958271;28;45354;-46
2023/06/10 10:01:11;;;;;;;;;4.00;4.00;;;;;25.90;45.72;100647.16;4960758;28;45450;-48
2023/06/10 10:03:47;;;;;;;;;6.00;5.00;;;;;25.92;45.94;100669.09;4959325;28;46144;-46
2023/06/10 10:06:17;;;;;;;;;4.00;4.00;;;;;25.91;45.87;100656.78;4958173;28;45532;-49
2023/06/10 10:08:44;;;;;;;;;5.00;4.00;;;;;25.92;45.62;100661.13;4970392;28;45388;-47
2023/06/10 10:11:13;;;;;;;;;4.75;4.75;;;;;25.92;46.02;100666.44;4960752;28;45367;-52
2023/06/10 10:13:39;;;;;;;;;7.75;5.50;;;;;25.93;45.88;100663.66;4958411;28;45371;-48
2023/06/10 10:16:13;;;;;;;;;6.00;6.00;;;;;25.93;45.79;100658.34;4973251;28;45743;-46
2023/06/10 10:18:41;;;;;;;;;4.50;4.50;;;;;25.94;45.65;100651.22;4968327;28;45311;-46
2023/06/10 10:21:11;;;;;;;;;6.50;6.50;;;;;25.96;45.18;100657.25;4963287;28;45357;-51
2023/06/10 10:23:57;;;;;;;;;6.00;6.00;;;;;25.95;46.11;100658.22;4960382;28;46870;-46
2023/06/10 10:26:25;;;;;;;;;5.50;5.50;;;;;25.95;45.70;100655.56;4959681;28;45186;-48
2023/06/10 10:29:24;;;;;;;;;4.00;4.00;;;;;25.97;45.49;100653.63;4962586;28;45285;-50
2023/06/10 10:31:53;;;;;;;;;6.75;5.00;;;;;25.97;45.21;100658.94;4971687;28;45586;-47
2023/06/10 10:34:24;;;;;;;;;5.50;5.50;;;;;25.96;45.21;100643.97;4976194;28;46156;-49
2023/06/10 10:36:50;;;;;;;;;5.00;5.00;;;;;25.99;45.10;100661.47;4977712;28;45052;-50
2023/06/10 10:39:17;;;;;;;;;5.50;5.00;;;;;25.98;44.99;100657.13;4978269;28;45317;-52
2023/06/10 10:41:43;;;;;;;;;4.75;3.75;;;;;25.98;44.80;100650.00;4977509;28;45339;-48
2023/06/10 10:44:10;;;;;;;;;5.00;5.00;;;;;25.99;45.25;100650.84;4978980;28;45714;-53
2023/06/10 10:46:49;;;;;;;;;6.00;6.00;;;;;26.01;44.76;100657.75;4979773;28;45172;-56
2023/06/10 10:49:17;;;;;;;;;6.00;6.00;;;;;26.01;44.63;100648.91;4979312;28;44780;-51
2023/06/10 10:52:05;;;;;;;;;5.00;5.00;;;;;26.03;44.42;100646.97;4973185;28;45180;-48
2023/06/10 10:54:32;;;;;;;;;8.00;6.00;;;;;26.04;44.45;100653.97;4963620;28;46407;-54
2023/06/10 10:57:12;;;;;;;;;6.00;5.25;;;;;26.05;44.39;100658.31;4959836;28;45827;-49
2023/06/10 10:59:49;;;;;;;;;5.25;5.25;;;;;26.06;44.53;100641.41;4959034;28;45176;-51
2023/06/10 11:02:19;;;;;;;;;6.50;6.25;;;;;26.08;44.13;100650.09;4957854;28;45644;-50
2023/06/10 11:04:46;;;;;;;;;5.25;5.25;;;;;26.07;44.54;100649.25;4957518;28;45543;-53
2023/06/10 11:07:15;;;;;;;;;6.00;6.00;;;;;26.08;44.17;100635.00;4956990;28;45338;-49
2023/06/10 11:10:17;;;;;;;;;6.50;6.50;;;;;26.11;44.05;100641.06;4957336;28;45323;-51
2023/06/10 11:12:51;;;;;;;;;6.75;5.25;;;;;26.11;44.13;100636.59;4956856;28;45354;-53
2023/06/10 11:15:22;;;;;;;;;9.00;6.75;;;;;26.12;44.09;100640.09;4957487;28;46183;-48
2023/06/10 11:18:11;;;;;;;;;8.25;5.75;;;;;26.13;44.13;100632.00;4942933;28;45771;-51
2023/06/10 11:20:52;;;;;;;;;8.75;6.25;;;;;26.14;43.75;100623.06;4960042;28;45385;-53
2023/06/10 11:23:32;;;;;;;;;7.00;6.00;;;;;26.15;44.05;100632.72;4960415;28;45441;-52
2023/06/10 11:26:17;;;;;;;;;6.25;5.50;;;;;26.16;44.11;100639.72;4960243;28;46829;-48
2023/06/10 11:28:45;;;;;;;;;7.25;7.25;;;;;26.16;43.66;100641.53;4971940;28;45152;-52
2023/06/10 11:31:20;;;;;;;;;9.75;6.00;;;;;26.19;43.50;100642.09;4948586;28;45467;-54
2023/06/10 11:33:47;;;;;;;;;6.50;6.50;;;;;26.19;43.37;100652.72;4979433;28;45524;-48
2023/06/10 11:36:13;;;;;;;;;7.50;7.50;;;;;26.20;43.52;100643.78;4974165;28;47174;-49
2023/06/10 11:38:40;;;;;;;;;7.00;6.75;;;;;26.22;43.41;100646.34;4960322;28;45354;-50
2023/06/10 11:41:06;;;;;;;;;7.75;6.75;;;;;26.21;43.42;100637.50;4958867;28;45310;-48
2023/06/10 11:43:32;;;;;;;;;8.75;5.00;;;;;26.23;43.20;100640.88;4959861;28;45631;-50
2023/06/10 11:45:57;;;;;;;;;8.00;6.00;;;;;26.23;43.01;100640.88;4959701;28;45411;-47
2023/06/10 11:48:22;;;;;;;;;7.00;5.00;;;;;26.24;42.88;100647.88;4959297;28;45586;-49
2023/06/10 11:50:48;;;;;;;;;7.75;6.50;;;;;26.26;42.52;100646.94;4959868;28;45276;-47
2023/06/10 11:53:14;;;;;;;;;8.50;7.00;;;;;26.27;42.50;100649.44;4958872;28;51996;-46